sensor_id;sensor_type;location;lat;lon;timestamp;P1;durP1;ratioP1;P2;durP2;ratioP2
66175;SDS011;52977;44.816;20.538;2023-07-22T00:01:12;4.20;;;1.33;;
66175;SDS011;52977;44.816;20.538;2023-07-22T00:03:38;6.35;;;1.63;;
66175;SDS011;52977;44.816;20.538;2023-07-22T00:06:07;5.07;;;1.42;;
66175;SDS011;52977;44.816;20.538;2023-07-22T00:08:35;4.55;;;1.33;;
66175;SDS011;52977;44.816;20.538;2023-07-22T00:11:04;4.05;;;1.35;;
66175;SDS011;52977;44.816;20.538;2023-07-22T00:13:31;5.55;;;2.08;;
66175;SDS011;52977;44.816;20.538;2023-07-22T00:15:58;4.50;;;1.20;;
66175;SDS011;52977;44.816;20.538;2023-07-22T00:18:25;6.60;;;1.55;;
66175;SDS011;52977;44.816;20.538;2023-07-22T00:20:53;4.30;;;1.40;;
66175;SDS011;52977;44.816;20.538;2023-07-22T00:23:20;5.10;;;1.30;;
66175;SDS011;52977;44.816;20.538;2023-07-22T00:25:47;4.13;;;1.38;;
66175;SDS011;52977;44.816;20.538;2023-07-22T00:28:13;5.88;;;1.42;;
66175;SDS011;52977;44.816;20.538;2023-07-22T00:30:40;4.97;;;1.70;;
66175;SDS011;52977;44.816;20.538;2023-07-22T00:33:07;5.55;;;1.38;;
66175;SDS011;52977;44.816;20.538;2023-07-22T00:35:33;6.15;;;1.60;;
66175;SDS011;52977;44.816;20.538;2023-07-22T00:38:00;6.32;;;1.38;;
66175;SDS011;52977;44.816;20.538;2023-07-22T00:40:27;6.60;;;1.63;;
66175;SDS011;52977;44.816;20.538;2023-07-22T00:45:24;7.93;;;1.60;;
66175;SDS011;52977;44.816;20.538;2023-07-22T00:47:50;4.35;;;1.92;;
66175;SDS011;52977;44.816;20.538;2023-07-22T00:50:16;8.35;;;2.13;;
66175;SDS011;52977;44.816;20.538;2023-07-22T00:52:41;6.38;;;1.70;;
66175;SDS011;52977;44.816;20.538;2023-07-22T00:55:08;5.40;;;1.70;;
66175;SDS011;52977;44.816;20.538;2023-07-22T00:57:35;5.07;;;1.70;;
66175;SDS011;52977;44.816;20.538;2023-07-22T01:00:02;7.72;;;1.80;;
66175;SDS011;52977;44.816;20.538;2023-07-22T01:02:28;7.47;;;1.65;;
66175;SDS011;52977;44.816;20.538;2023-07-22T01:04:54;9.57;;;2.03;;
66175;SDS011;52977;44.816;20.538;2023-07-22T01:07:20;15.15;;;2.28;;
66175;SDS011;52977;44.816;20.538;2023-07-22T01:09:47;9.25;;;2.00;;
66175;SDS011;52977;44.816;20.538;2023-07-22T01:12:13;4.03;;;1.50;;
66175;SDS011;52977;44.816;20.538;2023-07-22T01:14:39;5.82;;;1.73;;
66175;SDS011;52977;44.816;20.538;2023-07-22T01:17:07;8.75;;;2.05;;
66175;SDS011;52977;44.816;20.538;2023-07-22T01:19:35;11.65;;;2.00;;
66175;SDS011;52977;44.816;20.538;2023-07-22T01:22:04;7.10;;;2.17;;
66175;SDS011;52977;44.816;20.538;2023-07-22T01:24:33;6.47;;;2.20;;
66175;SDS011;52977;44.816;20.538;2023-07-22T01:27:00;8.77;;;1.73;;
66175;SDS011;52977;44.816;20.538;2023-07-22T01:29:26;6.93;;;1.80;;
66175;SDS011;52977;44.816;20.538;2023-07-22T01:31:53;6.57;;;1.80;;
66175;SDS011;52977;44.816;20.538;2023-07-22T01:34:20;9.75;;;2.30;;
66175;SDS011;52977;44.816;20.538;2023-07-22T01:36:47;10.00;;;2.38;;
66175;SDS011;52977;44.816;20.538;2023-07-22T01:39:15;8.20;;;2.10;;
66175;SDS011;52977;44.816;20.538;2023-07-22T01:41:42;4.85;;;1.70;;
66175;SDS011;52977;44.816;20.538;2023-07-22T01:44:08;8.02;;;2.42;;
66175;SDS011;52977;44.816;20.538;2023-07-22T01:46:34;8.00;;;2.70;;
66175;SDS011;52977;44.816;20.538;2023-07-22T01:49:03;7.18;;;2.03;;
66175;SDS011;52977;44.816;20.538;2023-07-22T01:51:32;6.22;;;2.10;;
66175;SDS011;52977;44.816;20.538;2023-07-22T01:53:58;6.55;;;2.20;;
66175;SDS011;52977;44.816;20.538;2023-07-22T01:56:24;7.43;;;2.15;;
66175;SDS011;52977;44.816;20.538;2023-07-22T01:58:50;8.57;;;2.50;;
66175;SDS011;52977;44.816;20.538;2023-07-22T02:01:16;8.40;;;2.20;;
66175;SDS011;52977;44.816;20.538;2023-07-22T02:03:42;11.63;;;2.65;;
66175;SDS011;52977;44.816;20.538;2023-07-22T02:06:09;9.75;;;2.25;;
66175;SDS011;52977;44.816;20.538;2023-07-22T02:08:35;10.65;;;2.20;;
66175;SDS011;52977;44.816;20.538;2023-07-22T02:11:06;8.05;;;2.10;;
66175;SDS011;52977;44.816;20.538;2023-07-22T02:13:35;11.18;;;2.38;;
66175;SDS011;52977;44.816;20.538;2023-07-22T02:16:01;10.48;;;2.30;;
66175;SDS011;52977;44.816;20.538;2023-07-22T02:18:28;6.43;;;2.30;;
66175;SDS011;52977;44.816;20.538;2023-07-22T02:20:55;5.38;;;1.95;;
66175;SDS011;52977;44.816;20.538;2023-07-22T02:23:22;6.78;;;2.08;;
66175;SDS011;52977;44.816;20.538;2023-07-22T02:25:50;5.40;;;2.28;;
66175;SDS011;52977;44.816;20.538;2023-07-22T02:28:17;5.70;;;2.80;;
66175;SDS011;52977;44.816;20.538;2023-07-22T02:30:47;9.38;;;2.17;;
66175;SDS011;52977;44.816;20.538;2023-07-22T02:33:14;7.90;;;2.22;;
66175;SDS011;52977;44.816;20.538;2023-07-22T02:35:41;8.10;;;2.13;;
66175;SDS011;52977;44.816;20.538;2023-07-22T02:38:08;7.53;;;1.83;;
66175;SDS011;52977;44.816;20.538;2023-07-22T02:40:34;10.40;;;2.83;;
66175;SDS011;52977;44.816;20.538;2023-07-22T02:43:00;7.47;;;2.33;;
66175;SDS011;52977;44.816;20.538;2023-07-22T02:45:27;6.15;;;2.40;;
66175;SDS011;52977;44.816;20.538;2023-07-22T02:47:53;9.88;;;2.47;;
66175;SDS011;52977;44.816;20.538;2023-07-22T02:50:19;9.93;;;2.50;;
66175;SDS011;52977;44.816;20.538;2023-07-22T02:52:45;7.95;;;2.50;;
66175;SDS011;52977;44.816;20.538;2023-07-22T02:55:15;6.47;;;2.42;;
66175;SDS011;52977;44.816;20.538;2023-07-22T02:57:45;8.68;;;2.72;;
66175;SDS011;52977;44.816;20.538;2023-07-22T03:00:12;7.88;;;2.20;;
66175;SDS011;52977;44.816;20.538;2023-07-22T03:02:39;6.38;;;2.00;;
66175;SDS011;52977;44.816;20.538;2023-07-22T03:05:06;7.88;;;2.42;;
66175;SDS011;52977;44.816;20.538;2023-07-22T03:07:34;7.47;;;2.40;;
66175;SDS011;52977;44.816;20.538;2023-07-22T03:10:00;7.15;;;2.40;;
66175;SDS011;52977;44.816;20.538;2023-07-22T03:12:26;7.25;;;2.10;;
66175;SDS011;52977;44.816;20.538;2023-07-22T03:14:52;9.93;;;2.92;;
66175;SDS011;52977;44.816;20.538;2023-07-22T03:17:18;10.25;;;2.50;;
66175;SDS011;52977;44.816;20.538;2023-07-22T03:19:44;11.45;;;3.08;;
66175;SDS011;52977;44.816;20.538;2023-07-22T03:22:11;9.25;;;2.58;;
66175;SDS011;52977;44.816;20.538;2023-07-22T03:24:39;7.18;;;2.42;;
66175;SDS011;52977;44.816;20.538;2023-07-22T03:27:05;7.63;;;2.47;;
66175;SDS011;52977;44.816;20.538;2023-07-22T03:29:32;6.53;;;2.58;;
66175;SDS011;52977;44.816;20.538;2023-07-22T03:31:58;8.07;;;2.20;;
66175;SDS011;52977;44.816;20.538;2023-07-22T03:34:29;8.48;;;2.22;;
66175;SDS011;52977;44.816;20.538;2023-07-22T03:36:56;9.38;;;2.30;;
66175;SDS011;52977;44.816;20.538;2023-07-22T03:39:22;7.07;;;2.20;;
66175;SDS011;52977;44.816;20.538;2023-07-22T03:41:49;8.13;;;2.40;;
66175;SDS011;52977;44.816;20.538;2023-07-22T03:44:14;5.65;;;2.15;;
66175;SDS011;52977;44.816;20.538;2023-07-22T03:46:40;9.27;;;2.55;;
66175;SDS011;52977;44.816;20.538;2023-07-22T03:49:05;8.50;;;2.78;;
66175;SDS011;52977;44.816;20.538;2023-07-22T03:51:32;8.98;;;2.72;;
66175;SDS011;52977;44.816;20.538;2023-07-22T03:53:58;7.05;;;2.50;;
66175;SDS011;52977;44.816;20.538;2023-07-22T03:56:25;7.78;;;2.88;;
66175;SDS011;52977;44.816;20.538;2023-07-22T03:58:51;6.85;;;2.42;;
66175;SDS011;52977;44.816;20.538;2023-07-22T04:01:18;6.13;;;2.30;;
66175;SDS011;52977;44.816;20.538;2023-07-22T04:03:45;7.63;;;2.13;;
66175;SDS011;52977;44.816;20.538;2023-07-22T04:06:10;10.23;;;3.10;;
66175;SDS011;52977;44.816;20.538;2023-07-22T04:08:36;11.38;;;2.72;;
66175;SDS011;52977;44.816;20.538;2023-07-22T04:11:02;6.47;;;2.38;;
66175;SDS011;52977;44.816;20.538;2023-07-22T04:13:28;8.85;;;3.10;;
66175;SDS011;52977;44.816;20.538;2023-07-22T04:15:55;12.70;;;2.85;;
66175;SDS011;52977;44.816;20.538;2023-07-22T04:18:21;8.43;;;2.65;;
66175;SDS011;52977;44.816;20.538;2023-07-22T04:20:47;7.82;;;2.42;;
66175;SDS011;52977;44.816;20.538;2023-07-22T04:23:16;7.07;;;2.47;;
66175;SDS011;52977;44.816;20.538;2023-07-22T04:25:43;7.35;;;2.67;;
66175;SDS011;52977;44.816;20.538;2023-07-22T04:28:10;9.27;;;2.50;;
66175;SDS011;52977;44.816;20.538;2023-07-22T04:30:37;9.98;;;2.65;;
66175;SDS011;52977;44.816;20.538;2023-07-22T04:33:05;8.10;;;2.30;;
66175;SDS011;52977;44.816;20.538;2023-07-22T04:35:32;6.85;;;2.40;;
66175;SDS011;52977;44.816;20.538;2023-07-22T04:37:58;7.07;;;2.20;;
66175;SDS011;52977;44.816;20.538;2023-07-22T04:40:25;11.00;;;2.53;;
66175;SDS011;52977;44.816;20.538;2023-07-22T04:42:51;7.60;;;2.50;;
66175;SDS011;52977;44.816;20.538;2023-07-22T04:45:17;6.28;;;2.65;;
66175;SDS011;52977;44.816;20.538;2023-07-22T04:47:44;7.00;;;3.00;;
66175;SDS011;52977;44.816;20.538;2023-07-22T04:50:12;9.50;;;2.78;;
66175;SDS011;52977;44.816;20.538;2023-07-22T04:52:41;7.65;;;2.63;;
66175;SDS011;52977;44.816;20.538;2023-07-22T04:55:09;11.20;;;3.58;;
66175;SDS011;52977;44.816;20.538;2023-07-22T04:57:36;9.65;;;3.13;;
66175;SDS011;52977;44.816;20.538;2023-07-22T05:00:03;7.43;;;2.80;;
66175;SDS011;52977;44.816;20.538;2023-07-22T05:02:30;8.35;;;2.60;;
66175;SDS011;52977;44.816;20.538;2023-07-22T05:04:56;6.90;;;2.88;;
66175;SDS011;52977;44.816;20.538;2023-07-22T05:07:23;9.73;;;3.75;;
66175;SDS011;52977;44.816;20.538;2023-07-22T05:09:49;8.30;;;2.55;;
66175;SDS011;52977;44.816;20.538;2023-07-22T05:12:17;9.45;;;2.88;;
66175;SDS011;52977;44.816;20.538;2023-07-22T05:14:46;7.63;;;2.90;;
66175;SDS011;52977;44.816;20.538;2023-07-22T05:17:12;10.73;;;2.90;;
66175;SDS011;52977;44.816;20.538;2023-07-22T05:19:38;9.45;;;2.60;;
66175;SDS011;52977;44.816;20.538;2023-07-22T05:22:04;10.30;;;3.40;;
66175;SDS011;52977;44.816;20.538;2023-07-22T05:24:30;7.18;;;3.05;;
66175;SDS011;52977;44.816;20.538;2023-07-22T05:26:56;8.23;;;2.78;;
66175;SDS011;52977;44.816;20.538;2023-07-22T05:29:21;9.90;;;3.15;;
66175;SDS011;52977;44.816;20.538;2023-07-22T05:31:47;8.73;;;2.47;;
66175;SDS011;52977;44.816;20.538;2023-07-22T05:34:13;7.78;;;2.70;;
66175;SDS011;52977;44.816;20.538;2023-07-22T05:36:39;12.52;;;3.20;;
66175;SDS011;52977;44.816;20.538;2023-07-22T05:39:05;10.30;;;3.25;;
66175;SDS011;52977;44.816;20.538;2023-07-22T05:41:32;11.48;;;2.95;;
66175;SDS011;52977;44.816;20.538;2023-07-22T05:43:59;10.02;;;3.03;;
66175;SDS011;52977;44.816;20.538;2023-07-22T05:46:25;10.82;;;4.97;;
66175;SDS011;52977;44.816;20.538;2023-07-22T05:48:51;8.20;;;2.80;;
66175;SDS011;52977;44.816;20.538;2023-07-22T05:51:17;14.60;;;3.15;;
66175;SDS011;52977;44.816;20.538;2023-07-22T05:53:44;10.82;;;3.30;;
66175;SDS011;52977;44.816;20.538;2023-07-22T05:56:10;12.43;;;3.50;;
66175;SDS011;52977;44.816;20.538;2023-07-22T05:58:36;12.70;;;3.05;;
66175;SDS011;52977;44.816;20.538;2023-07-22T06:01:02;9.07;;;3.20;;
66175;SDS011;52977;44.816;20.538;2023-07-22T06:03:28;7.43;;;3.20;;
66175;SDS011;52977;44.816;20.538;2023-07-22T06:05:54;8.60;;;3.40;;
66175;SDS011;52977;44.816;20.538;2023-07-22T06:08:20;7.35;;;2.95;;
66175;SDS011;52977;44.816;20.538;2023-07-22T06:10:47;11.35;;;3.40;;
66175;SDS011;52977;44.816;20.538;2023-07-22T06:13:13;9.38;;;3.78;;
66175;SDS011;52977;44.816;20.538;2023-07-22T06:15:39;10.27;;;3.72;;
66175;SDS011;52977;44.816;20.538;2023-07-22T06:18:05;9.30;;;3.88;;
66175;SDS011;52977;44.816;20.538;2023-07-22T06:20:34;9.15;;;3.83;;
66175;SDS011;52977;44.816;20.538;2023-07-22T06:23:01;10.10;;;3.83;;
66175;SDS011;52977;44.816;20.538;2023-07-22T06:25:28;9.65;;;4.18;;
66175;SDS011;52977;44.816;20.538;2023-07-22T06:27:54;12.13;;;4.53;;
66175;SDS011;52977;44.816;20.538;2023-07-22T06:30:20;17.17;;;4.75;;
66175;SDS011;52977;44.816;20.538;2023-07-22T06:32:46;12.75;;;4.75;;
66175;SDS011;52977;44.816;20.538;2023-07-22T06:35:12;13.35;;;4.63;;
66175;SDS011;52977;44.816;20.538;2023-07-22T06:37:38;7.13;;;3.70;;
66175;SDS011;52977;44.816;20.538;2023-07-22T06:40:05;12.35;;;4.55;;
66175;SDS011;52977;44.816;20.538;2023-07-22T06:42:32;11.25;;;4.13;;
66175;SDS011;52977;44.816;20.538;2023-07-22T06:44:58;10.70;;;3.70;;
66175;SDS011;52977;44.816;20.538;2023-07-22T06:47:24;7.95;;;3.60;;
66175;SDS011;52977;44.816;20.538;2023-07-22T06:49:51;9.23;;;4.00;;
66175;SDS011;52977;44.816;20.538;2023-07-22T06:52:17;9.20;;;3.78;;
66175;SDS011;52977;44.816;20.538;2023-07-22T06:54:42;8.95;;;3.80;;
66175;SDS011;52977;44.816;20.538;2023-07-22T06:57:08;10.15;;;3.63;;
66175;SDS011;52977;44.816;20.538;2023-07-22T06:59:35;8.98;;;3.60;;
66175;SDS011;52977;44.816;20.538;2023-07-22T07:02:01;9.10;;;3.72;;
66175;SDS011;52977;44.816;20.538;2023-07-22T07:04:28;11.20;;;3.53;;
66175;SDS011;52977;44.816;20.538;2023-07-22T07:06:54;10.88;;;3.70;;
66175;SDS011;52977;44.816;20.538;2023-07-22T07:09:20;8.27;;;3.40;;
66175;SDS011;52977;44.816;20.538;2023-07-22T07:11:46;8.32;;;4.22;;
66175;SDS011;52977;44.816;20.538;2023-07-22T07:14:12;7.68;;;3.55;;
66175;SDS011;52977;44.816;20.538;2023-07-22T07:16:38;9.50;;;3.40;;
66175;SDS011;52977;44.816;20.538;2023-07-22T07:19:04;8.32;;;3.80;;
66175;SDS011;52977;44.816;20.538;2023-07-22T07:21:30;8.30;;;3.60;;
66175;SDS011;52977;44.816;20.538;2023-07-22T07:23:57;10.90;;;3.95;;
66175;SDS011;52977;44.816;20.538;2023-07-22T07:26:23;12.18;;;3.53;;
66175;SDS011;52977;44.816;20.538;2023-07-22T07:28:49;8.50;;;3.45;;
66175;SDS011;52977;44.816;20.538;2023-07-22T07:31:18;10.60;;;3.95;;
66175;SDS011;52977;44.816;20.538;2023-07-22T07:33:45;8.73;;;3.50;;
66175;SDS011;52977;44.816;20.538;2023-07-22T07:36:11;7.38;;;3.40;;
66175;SDS011;52977;44.816;20.538;2023-07-22T07:38:36;9.35;;;3.22;;
66175;SDS011;52977;44.816;20.538;2023-07-22T07:41:03;8.02;;;3.47;;
66175;SDS011;52977;44.816;20.538;2023-07-22T07:43:30;6.32;;;3.25;;
66175;SDS011;52977;44.816;20.538;2023-07-22T07:46:12;6.28;;;3.20;;
66175;SDS011;52977;44.816;20.538;2023-07-22T07:48:40;11.07;;;3.00;;
66175;SDS011;52977;44.816;20.538;2023-07-22T07:51:06;7.40;;;3.70;;
66175;SDS011;52977;44.816;20.538;2023-07-22T07:53:32;7.40;;;3.10;;
66175;SDS011;52977;44.816;20.538;2023-07-22T07:55:58;8.25;;;3.15;;
66175;SDS011;52977;44.816;20.538;2023-07-22T07:58:24;7.13;;;3.58;;
66175;SDS011;52977;44.816;20.538;2023-07-22T08:00:50;7.22;;;3.10;;
66175;SDS011;52977;44.816;20.538;2023-07-22T08:03:17;8.32;;;3.35;;
66175;SDS011;52977;44.816;20.538;2023-07-22T08:05:43;7.82;;;3.50;;
66175;SDS011;52977;44.816;20.538;2023-07-22T08:08:09;9.73;;;3.90;;
66175;SDS011;52977;44.816;20.538;2023-07-22T08:10:36;8.63;;;3.90;;
66175;SDS011;52977;44.816;20.538;2023-07-22T08:13:02;7.40;;;3.50;;
66175;SDS011;52977;44.816;20.538;2023-07-22T08:15:28;8.05;;;4.20;;
66175;SDS011;52977;44.816;20.538;2023-07-22T08:17:55;10.52;;;3.90;;
66175;SDS011;52977;44.816;20.538;2023-07-22T08:20:21;6.15;;;3.53;;
66175;SDS011;52977;44.816;20.538;2023-07-22T08:22:47;6.30;;;3.90;;
66175;SDS011;52977;44.816;20.538;2023-07-22T08:25:13;7.90;;;4.00;;
66175;SDS011;52977;44.816;20.538;2023-07-22T08:27:39;8.02;;;4.25;;
66175;SDS011;52977;44.816;20.538;2023-07-22T08:30:05;7.32;;;4.00;;
66175;SDS011;52977;44.816;20.538;2023-07-22T08:32:33;9.98;;;4.07;;
66175;SDS011;52977;44.816;20.538;2023-07-22T08:34:59;7.28;;;4.63;;
66175;SDS011;52977;44.816;20.538;2023-07-22T08:37:25;6.50;;;4.07;;
66175;SDS011;52977;44.816;20.538;2023-07-22T08:39:52;8.52;;;4.40;;
66175;SDS011;52977;44.816;20.538;2023-07-22T08:42:18;8.40;;;4.72;;
66175;SDS011;52977;44.816;20.538;2023-07-22T08:44:48;6.68;;;4.38;;
66175;SDS011;52977;44.816;20.538;2023-07-22T08:47:15;7.30;;;4.10;;
66175;SDS011;52977;44.816;20.538;2023-07-22T08:49:46;11.88;;;4.70;;
66175;SDS011;52977;44.816;20.538;2023-07-22T08:52:17;10.60;;;4.53;;
66175;SDS011;52977;44.816;20.538;2023-07-22T08:54:44;7.07;;;4.55;;
66175;SDS011;52977;44.816;20.538;2023-07-22T08:57:11;7.82;;;4.32;;
66175;SDS011;52977;44.816;20.538;2023-07-22T08:59:37;8.55;;;4.60;;
66175;SDS011;52977;44.816;20.538;2023-07-22T09:02:03;11.57;;;4.68;;
66175;SDS011;52977;44.816;20.538;2023-07-22T09:04:30;8.90;;;5.00;;
66175;SDS011;52977;44.816;20.538;2023-07-22T09:06:56;7.28;;;4.80;;
66175;SDS011;52977;44.816;20.538;2023-07-22T09:09:23;7.65;;;4.35;;
66175;SDS011;52977;44.816;20.538;2023-07-22T09:11:51;7.25;;;4.38;;
66175;SDS011;52977;44.816;20.538;2023-07-22T09:14:19;9.57;;;4.47;;
66175;SDS011;52977;44.816;20.538;2023-07-22T09:16:46;7.80;;;4.32;;
66175;SDS011;52977;44.816;20.538;2023-07-22T09:19:12;6.65;;;3.88;;
66175;SDS011;52977;44.816;20.538;2023-07-22T09:21:39;7.28;;;4.22;;
66175;SDS011;52977;44.816;20.538;2023-07-22T09:24:21;9.90;;;4.13;;
66175;SDS011;52977;44.816;20.538;2023-07-22T09:26:49;9.40;;;5.20;;
66175;SDS011;52977;44.816;20.538;2023-07-22T09:29:16;8.63;;;4.63;;
66175;SDS011;52977;44.816;20.538;2023-07-22T09:31:53;7.88;;;4.22;;
66175;SDS011;52977;44.816;20.538;2023-07-22T09:34:19;7.97;;;3.90;;
66175;SDS011;52977;44.816;20.538;2023-07-22T09:36:50;9.15;;;4.55;;
66175;SDS011;52977;44.816;20.538;2023-07-22T09:39:17;7.30;;;4.32;;
66175;SDS011;52977;44.816;20.538;2023-07-22T09:41:44;8.73;;;3.92;;
66175;SDS011;52977;44.816;20.538;2023-07-22T09:44:11;9.07;;;4.43;;
66175;SDS011;52977;44.816;20.538;2023-07-22T09:46:38;9.77;;;5.22;;
66175;SDS011;52977;44.816;20.538;2023-07-22T09:49:05;9.15;;;4.93;;
66175;SDS011;52977;44.816;20.538;2023-07-22T09:51:34;7.50;;;4.25;;
66175;SDS011;52977;44.816;20.538;2023-07-22T09:54:02;8.30;;;4.28;;
66175;SDS011;52977;44.816;20.538;2023-07-22T09:56:30;9.98;;;4.95;;
66175;SDS011;52977;44.816;20.538;2023-07-22T09:58:58;8.13;;;5.03;;
66175;SDS011;52977;44.816;20.538;2023-07-22T10:01:24;11.32;;;4.32;;
66175;SDS011;52977;44.816;20.538;2023-07-22T10:03:53;7.13;;;4.40;;
66175;SDS011;52977;44.816;20.538;2023-07-22T10:06:27;7.45;;;4.43;;
66175;SDS011;52977;44.816;20.538;2023-07-22T10:08:58;7.82;;;4.15;;
66175;SDS011;52977;44.816;20.538;2023-07-22T10:11:28;6.25;;;4.05;;
66175;SDS011;52977;44.816;20.538;2023-07-22T10:13:55;7.47;;;4.63;;
66175;SDS011;52977;44.816;20.538;2023-07-22T10:16:21;8.82;;;4.00;;
66175;SDS011;52977;44.816;20.538;2023-07-22T10:18:48;9.73;;;4.30;;
66175;SDS011;52977;44.816;20.538;2023-07-22T10:21:14;8.85;;;4.15;;
66175;SDS011;52977;44.816;20.538;2023-07-22T10:23:41;9.23;;;4.32;;
66175;SDS011;52977;44.816;20.538;2023-07-22T10:26:11;8.57;;;4.43;;
66175;SDS011;52977;44.816;20.538;2023-07-22T10:28:40;8.27;;;4.38;;
66175;SDS011;52977;44.816;20.538;2023-07-22T10:31:06;8.80;;;5.53;;
66175;SDS011;52977;44.816;20.538;2023-07-22T10:33:32;6.55;;;4.22;;
66175;SDS011;52977;44.816;20.538;2023-07-22T10:36:03;7.68;;;3.70;;
66175;SDS011;52977;44.816;20.538;2023-07-22T10:38:39;9.63;;;4.13;;
66175;SDS011;52977;44.816;20.538;2023-07-22T10:41:15;9.88;;;4.93;;
66175;SDS011;52977;44.816;20.538;2023-07-22T10:43:57;10.20;;;4.20;;
66175;SDS011;52977;44.816;20.538;2023-07-22T10:46:59;7.75;;;4.75;;
66175;SDS011;52977;44.816;20.538;2023-07-22T10:49:24;6.53;;;4.30;;
66175;SDS011;52977;44.816;20.538;2023-07-22T10:52:09;5.90;;;3.83;;
66175;SDS011;52977;44.816;20.538;2023-07-22T10:54:38;10.15;;;4.32;;
66175;SDS011;52977;44.816;20.538;2023-07-22T10:59:52;8.60;;;4.20;;
66175;SDS011;52977;44.816;20.538;2023-07-22T11:02:24;7.28;;;4.03;;
66175;SDS011;52977;44.816;20.538;2023-07-22T11:04:52;8.18;;;4.68;;
66175;SDS011;52977;44.816;20.538;2023-07-22T11:07:34;5.60;;;3.85;;
66175;SDS011;52977;44.816;20.538;2023-07-22T11:10:13;8.25;;;4.32;;
66175;SDS011;52977;44.816;20.538;2023-07-22T11:12:45;8.52;;;4.32;;
66175;SDS011;52977;44.816;20.538;2023-07-22T11:15:12;8.88;;;4.05;;
66175;SDS011;52977;44.816;20.538;2023-07-22T11:17:40;7.97;;;3.67;;
66175;SDS011;52977;44.816;20.538;2023-07-22T11:20:07;7.13;;;3.80;;
66175;SDS011;52977;44.816;20.538;2023-07-22T11:22:33;6.30;;;3.92;;
66175;SDS011;52977;44.816;20.538;2023-07-22T11:24:59;6.45;;;4.13;;
66175;SDS011;52977;44.816;20.538;2023-07-22T11:27:25;7.57;;;4.00;;
66175;SDS011;52977;44.816;20.538;2023-07-22T11:29:52;7.95;;;3.88;;
66175;SDS011;52977;44.816;20.538;2023-07-22T11:32:18;10.38;;;5.38;;
66175;SDS011;52977;44.816;20.538;2023-07-22T11:34:50;5.90;;;3.85;;
66175;SDS011;52977;44.816;20.538;2023-07-22T11:37:18;10.25;;;4.47;;
66175;SDS011;52977;44.816;20.538;2023-07-22T11:39:43;6.72;;;3.88;;
66175;SDS011;52977;44.816;20.538;2023-07-22T11:42:10;10.80;;;4.75;;
66175;SDS011;52977;44.816;20.538;2023-07-22T11:44:37;7.10;;;3.60;;
66175;SDS011;52977;44.816;20.538;2023-07-22T11:47:04;10.95;;;4.63;;
66175;SDS011;52977;44.816;20.538;2023-07-22T11:49:39;8.75;;;3.78;;
66175;SDS011;52977;44.816;20.538;2023-07-22T11:52:08;6.28;;;3.85;;
66175;SDS011;52977;44.816;20.538;2023-07-22T11:54:37;6.85;;;3.80;;
66175;SDS011;52977;44.816;20.538;2023-07-22T11:59:45;7.25;;;3.90;;
66175;SDS011;52977;44.816;20.538;2023-07-22T12:02:13;7.43;;;3.85;;
66175;SDS011;52977;44.816;20.538;2023-07-22T12:04:40;5.65;;;3.38;;
66175;SDS011;52977;44.816;20.538;2023-07-22T12:07:06;6.40;;;3.63;;
66175;SDS011;52977;44.816;20.538;2023-07-22T12:09:32;6.07;;;3.65;;
66175;SDS011;52977;44.816;20.538;2023-07-22T12:11:58;6.80;;;3.50;;
66175;SDS011;52977;44.816;20.538;2023-07-22T12:14:34;7.35;;;4.05;;
66175;SDS011;52977;44.816;20.538;2023-07-22T12:17:01;11.10;;;3.72;;
66175;SDS011;52977;44.816;20.538;2023-07-22T12:19:28;6.47;;;3.88;;
66175;SDS011;52977;44.816;20.538;2023-07-22T12:21:56;7.90;;;3.88;;
66175;SDS011;52977;44.816;20.538;2023-07-22T12:24:22;6.82;;;3.85;;
66175;SDS011;52977;44.816;20.538;2023-07-22T12:26:48;7.22;;;3.47;;
66175;SDS011;52977;44.816;20.538;2023-07-22T12:29:14;7.10;;;3.83;;
66175;SDS011;52977;44.816;20.538;2023-07-22T12:31:40;21.13;;;12.07;;
66175;SDS011;52977;44.816;20.538;2023-07-22T12:34:06;7.88;;;3.92;;
66175;SDS011;52977;44.816;20.538;2023-07-22T12:36:32;5.97;;;3.58;;
66175;SDS011;52977;44.816;20.538;2023-07-22T12:38:58;8.93;;;3.72;;
66175;SDS011;52977;44.816;20.538;2023-07-22T12:41:25;6.90;;;3.75;;
66175;SDS011;52977;44.816;20.538;2023-07-22T12:43:51;8.30;;;4.05;;
66175;SDS011;52977;44.816;20.538;2023-07-22T12:46:17;6.68;;;3.47;;
66175;SDS011;52977;44.816;20.538;2023-07-22T12:48:43;5.75;;;3.60;;
66175;SDS011;52977;44.816;20.538;2023-07-22T12:51:09;8.95;;;3.33;;
66175;SDS011;52977;44.816;20.538;2023-07-22T12:53:36;6.43;;;3.55;;
66175;SDS011;52977;44.816;20.538;2023-07-22T12:56:02;5.78;;;3.65;;
66175;SDS011;52977;44.816;20.538;2023-07-22T12:58:29;5.00;;;3.33;;
66175;SDS011;52977;44.816;20.538;2023-07-22T13:00:55;5.60;;;3.35;;
66175;SDS011;52977;44.816;20.538;2023-07-22T13:03:21;7.57;;;3.22;;
66175;SDS011;52977;44.816;20.538;2023-07-22T13:05:47;6.38;;;3.28;;
66175;SDS011;52977;44.816;20.538;2023-07-22T13:08:13;5.55;;;3.10;;
66175;SDS011;52977;44.816;20.538;2023-07-22T13:10:39;6.65;;;3.20;;
66175;SDS011;52977;44.816;20.538;2023-07-22T13:13:09;4.90;;;3.13;;
66175;SDS011;52977;44.816;20.538;2023-07-22T13:15:36;7.50;;;3.38;;
66175;SDS011;52977;44.816;20.538;2023-07-22T13:18:02;13.02;;;8.23;;
66175;SDS011;52977;44.816;20.538;2023-07-22T13:20:29;10.50;;;5.80;;
66175;SDS011;52977;44.816;20.538;2023-07-22T13:22:55;8.30;;;4.72;;
66175;SDS011;52977;44.816;20.538;2023-07-22T13:25:21;5.90;;;3.58;;
66175;SDS011;52977;44.816;20.538;2023-07-22T13:27:47;5.18;;;3.03;;
66175;SDS011;52977;44.816;20.538;2023-07-22T13:30:13;5.30;;;2.97;;
66175;SDS011;52977;44.816;20.538;2023-07-22T13:32:40;4.55;;;2.92;;
66175;SDS011;52977;44.816;20.538;2023-07-22T13:35:06;7.85;;;3.22;;
66175;SDS011;52977;44.816;20.538;2023-07-22T13:37:33;5.85;;;3.40;;
66175;SDS011;52977;44.816;20.538;2023-07-22T13:39:59;5.68;;;3.00;;
66175;SDS011;52977;44.816;20.538;2023-07-22T13:42:25;4.65;;;2.80;;
66175;SDS011;52977;44.816;20.538;2023-07-22T13:44:52;4.30;;;2.60;;
66175;SDS011;52977;44.816;20.538;2023-07-22T13:47:18;5.88;;;3.13;;
66175;SDS011;52977;44.816;20.538;2023-07-22T13:49:44;11.27;;;3.13;;
66175;SDS011;52977;44.816;20.538;2023-07-22T13:52:10;5.60;;;2.90;;
66175;SDS011;52977;44.816;20.538;2023-07-22T13:54:36;8.25;;;2.65;;
66175;SDS011;52977;44.816;20.538;2023-07-22T13:57:02;9.48;;;2.88;;
66175;SDS011;52977;44.816;20.538;2023-07-22T13:59:28;5.00;;;3.15;;
66175;SDS011;52977;44.816;20.538;2023-07-22T14:01:54;5.20;;;3.00;;
66175;SDS011;52977;44.816;20.538;2023-07-22T14:04:20;6.03;;;2.92;;
66175;SDS011;52977;44.816;20.538;2023-07-22T14:06:46;6.43;;;2.70;;
66175;SDS011;52977;44.816;20.538;2023-07-22T14:09:12;4.88;;;2.90;;
66175;SDS011;52977;44.816;20.538;2023-07-22T14:11:38;5.20;;;3.08;;
66175;SDS011;52977;44.816;20.538;2023-07-22T14:14:04;8.55;;;2.97;;
66175;SDS011;52977;44.816;20.538;2023-07-22T14:16:31;6.15;;;3.17;;
66175;SDS011;52977;44.816;20.538;2023-07-22T14:18:57;6.70;;;2.90;;
66175;SDS011;52977;44.816;20.538;2023-07-22T14:21:23;9.15;;;2.72;;
66175;SDS011;52977;44.816;20.538;2023-07-22T14:23:49;4.97;;;3.00;;
66175;SDS011;52977;44.816;20.538;2023-07-22T14:26:15;6.88;;;4.60;;
66175;SDS011;52977;44.816;20.538;2023-07-22T14:28:42;5.85;;;3.20;;
66175;SDS011;52977;44.816;20.538;2023-07-22T14:31:08;6.80;;;3.50;;
66175;SDS011;52977;44.816;20.538;2023-07-22T14:33:34;4.80;;;3.00;;
66175;SDS011;52977;44.816;20.538;2023-07-22T14:36:00;6.28;;;3.22;;
66175;SDS011;52977;44.816;20.538;2023-07-22T14:38:26;7.28;;;3.38;;
66175;SDS011;52977;44.816;20.538;2023-07-22T14:40:53;5.60;;;3.13;;